Coal Hill, AR

8:04 AM CDT on July 28, 2016 (GMT -0500)
RVO CLARKSVILLE 64 W. | | Change Station

Elev 394 ft 35.46 °N, 93.53 °W | Updated 8 seconds ago

Mostly Cloudy
Mostly Cloudy
75.6 °F
Feels Like 75 °F
N
0.0
Wind Variable Wind from South
Gusts 0.0 mph

Today
High -- | Low -- °F
--% Chance of Precip.
Yesterday
High -- | Low -- °F
Precip. -- in
Pressure 29.94 in
Visibility 9.0 miles
Clouds Mostly Cloudy 900 ft
Heat Index 75 °F
Dew Point 74 °F
Humidity 94%
Rainfall 0.00 in
Snow Depth Not available.
6:20 AM 8:21 PM
Waning Crescent, 32% visible
METAR KRUE 281253Z AUTO 18003KT 9SM BKN009 25/24 A2996 RMK AO2 CIG 005V012 SLP137 T02500244 TSNO
Pressure 29.94 in
Visibility 9.0 miles
Clouds Mostly Cloudy 900 ft
Heat Index 75 °F
Dew Point 74 °F
Humidity 94%
Rainfall 0.00 in
Snow Depth Not available.
6:20 AM 8:21 PM
Waning Crescent, 32% visible
METAR KRUE 281253Z AUTO 18003KT 9SM BKN009 25/24 A2996 RMK AO2 CIG 005V012 SLP137 T02500244 TSNO

10-Day Weather Forecast

Almanac

Astronomy

Jul. 28, 2016 Rise Set
Actual Time
Civil Twilight
Nautical Twilight
Astronomical Twilight
Moon
Length of Visible Light
Length of Day
Tomorrow will be .
, % of the Moon is Illuminated

Today's Extremes

State Highs State Lows

Community

WunderPhotos

Upload Photos

1,928,109 photos uploaded!

WunderBlog® & News

Nearby

Air Quality

  Air Quality AQ Index Pollutant
Not available.

Snow Depth

Station Depth Elevation

Earthquake Activity

City Distance Mag. Time & Date
Minimum magnitude displayed is 2.5.

Coastal Water Temperatures

Place Temperature

Stations

Nearby Weather Stations

Station Location Temp. Windchill Dew Point Humidity Wind Precip. Elev Updated Type
                   

Watches & Warnings

There are currently no watches in effect.